CT4 weather

Public forecast

Using degrees Celsius for public forecast. Weather courtesy of forecast.io.

Closest aviation weather report (METAR) to Budworm City Airport

Closest report is Bathurst Airport, 36.6 nm (67.7 km) E. Retrieved 2020/08/09 22:00 UTC (5 minutes ago):

CZBF 092200Z AUTO 30010G15KT 260V320 9SM BKN095 30/12 A2988 RMK SLP121 DENSITY ALT 1900FT

Closest aviation forecast (TAF) to Budworm City Airport

Closest forecast is Bathurst Airport, 36.6 nm (67.7 km) E. Retrieved 2020/08/09 20:00 UTC (2 hours ago):

TAF CZBF 091939Z 0920/1003 27012G22KT P6SM SKC FM092100 28010KT P6SM BKN070 TEMPO 0921/1003 P6SM -SHRA RMK FCST BASED ON AUTO OBS NXT FCST WILL BE ISSUED AT 100845Z